createdAt,value
2023-03-26T00:02:14.222Z,8.05
2023-03-26T00:04:42.578Z,16.88
2023-03-26T00:07:10.578Z,7.07
2023-03-26T00:09:38.061Z,11.25
2023-03-26T00:12:05.185Z,11.52
2023-03-26T00:14:32.661Z,9.43
2023-03-26T00:16:59.977Z,10.98
2023-03-26T00:19:27.817Z,11.50
2023-03-26T00:21:57.584Z,9.52
2023-03-26T00:24:29.427Z,8.85
2023-03-26T00:26:56.634Z,16.70
2023-03-26T00:29:24.645Z,13.60
2023-03-26T00:31:51.839Z,13.85
2023-03-26T00:34:18.980Z,12.60
2023-03-26T00:36:46.889Z,11.98
2023-03-26T00:39:14.162Z,10.55
2023-03-26T00:41:43.298Z,12.48
2023-03-26T00:44:11.332Z,11.75
2023-03-26T00:46:38.471Z,13.73
2023-03-26T00:49:05.880Z,12.02
2023-03-26T00:51:33.856Z,16.45
2023-03-26T00:54:01.442Z,9.38
2023-03-26T00:56:28.673Z,10.98
2023-03-26T00:58:55.781Z,12.43
2023-03-26T01:01:27.894Z,4.90
2023-03-26T01:04:08.205Z,13.90
2023-03-26T01:06:37.990Z,12.02
2023-03-26T01:09:15.990Z,11.45
2023-03-26T01:11:43.265Z,14.07
2023-03-26T01:14:29.219Z,9.00
2023-03-26T01:17:03.030Z,15.00
2023-03-26T01:19:50.970Z,11.38
2023-03-26T01:22:20.002Z,8.63
2023-03-26T01:24:53.069Z,10.98
2023-03-26T01:27:28.833Z,11.68
2023-03-26T01:30:14.880Z,13.75
2023-03-26T01:32:48.206Z,9.68
2023-03-26T01:35:19.050Z,11.90
2023-03-26T01:37:46.746Z,11.90
2023-03-26T01:40:29.367Z,11.55
2023-03-26T01:43:26.188Z,12.73
2023-03-26T01:45:54.569Z,9.43
2023-03-26T01:48:21.914Z,14.13
2023-03-26T01:50:53.441Z,13.55
2023-03-26T01:53:20.681Z,10.32
2023-03-26T01:55:49.616Z,12.98
2023-03-26T01:58:19.820Z,11.23
2023-03-26T02:01:02.060Z,12.10
2023-03-26T02:03:35.332Z,13.05
2023-03-26T02:06:07.781Z,13.70
2023-03-26T02:08:41.282Z,13.07
2023-03-26T02:11:11.759Z,15.48
2023-03-26T02:13:43.212Z,8.75
2023-03-26T02:16:16.530Z,8.93
2023-03-26T02:18:51.270Z,9.73
2023-03-26T02:21:21.499Z,12.05
2023-03-26T02:23:57.683Z,8.52
2023-03-26T02:26:25.760Z,12.02
2023-03-26T02:29:20.181Z,11.57
2023-03-26T02:31:48.811Z,8.73
2023-03-26T02:34:17.025Z,12.00
2023-03-26T02:36:51.033Z,10.13
2023-03-26T02:39:18.459Z,9.10
2023-03-26T02:41:53.127Z,10.65
2023-03-26T02:44:20.851Z,15.95
2023-03-26T02:47:00.185Z,10.50
2023-03-26T02:49:53.468Z,11.98
2023-03-26T02:52:40.783Z,11.68
2023-03-26T02:55:08.070Z,11.02
2023-03-26T02:57:36.095Z,14.52
2023-03-26T03:00:09.023Z,9.45
2023-03-26T03:02:38.372Z,11.50
2023-03-26T03:05:26.559Z,13.50
2023-03-26T03:08:23.924Z,11.10
2023-03-26T03:11:14.825Z,13.85
2023-03-26T03:13:49.728Z,14.00
2023-03-26T03:16:21.063Z,11.18
2023-03-26T03:18:54.148Z,14.07
2023-03-26T03:21:27.257Z,11.52
2023-03-26T03:23:55.288Z,13.80
2023-03-26T03:26:27.683Z,13.75
2023-03-26T03:31:28.512Z,14.15
2023-03-26T03:36:33.116Z,11.73
2023-03-26T03:39:09.632Z,16.05
2023-03-26T03:41:37.384Z,17.02
2023-03-26T03:44:07.844Z,15.82
2023-03-26T03:46:35.378Z,11.63
2023-03-26T03:49:03.330Z,13.02
2023-03-26T03:51:35.296Z,10.93
2023-03-26T03:54:13.387Z,12.05
2023-03-26T03:57:02.063Z,15.13
2023-03-26T03:59:38.191Z,10.82
2023-03-26T04:02:14.821Z,16.90
2023-03-26T04:04:50.044Z,14.15
2023-03-26T04:07:20.345Z,17.55
2023-03-26T04:10:07.316Z,13.05
2023-03-26T04:12:52.931Z,12.60
2023-03-26T04:15:28.117Z,13.27
2023-03-26T04:17:55.250Z,12.77
2023-03-26T04:20:23.230Z,14.10
2023-03-26T04:22:51.467Z,12.55
2023-03-26T04:25:21.319Z,14.85
2023-03-26T04:27:58.311Z,17.27
2023-03-26T04:30:44.880Z,14.00
2023-03-26T04:33:34.230Z,15.23
2023-03-26T04:36:02.923Z,17.98
2023-03-26T04:38:40.931Z,15.95
2023-03-26T04:41:11.330Z,16.73
2023-03-26T04:43:47.367Z,12.77
2023-03-26T04:46:33.741Z,15.40
2023-03-26T04:49:11.106Z,17.05
2023-03-26T04:51:41.694Z,14.13
2023-03-26T04:54:24.413Z,17.38
2023-03-26T04:57:00.048Z,15.75
2023-03-26T04:59:53.381Z,15.73
2023-03-26T05:02:21.095Z,17.75
2023-03-26T05:04:52.011Z,18.92
2023-03-26T05:07:20.947Z,12.50
2023-03-26T05:09:51.892Z,12.45
2023-03-26T05:12:37.317Z,15.95
2023-03-26T05:15:10.741Z,22.00
2023-03-26T05:18:00.702Z,20.77
2023-03-26T05:20:32.429Z,15.38
2023-03-26T05:22:59.636Z,14.68
2023-03-26T05:25:29.760Z,16.35
2023-03-26T05:27:58.010Z,15.57
2023-03-26T05:30:30.637Z,14.38
2023-03-26T05:33:04.215Z,17.33
2023-03-26T05:35:40.674Z,20.40
2023-03-26T05:38:09.666Z,18.20
2023-03-26T05:40:36.887Z,19.95
2023-03-26T05:43:06.081Z,20.27
2023-03-26T05:45:37.306Z,17.75
2023-03-26T05:48:25.426Z,19.42
2023-03-26T05:50:54.409Z,24.92
2023-03-26T05:53:22.033Z,18.92
2023-03-26T05:56:07.488Z,19.38
2023-03-26T05:58:47.562Z,24.02
2023-03-26T06:01:33.166Z,20.00
2023-03-26T06:04:18.610Z,19.08
2023-03-26T06:07:19.842Z,21.02
2023-03-26T06:09:59.284Z,21.05
2023-03-26T06:12:26.462Z,20.17
2023-03-26T06:14:53.608Z,15.95
2023-03-26T06:17:30.196Z,21.48
2023-03-26T06:20:14.727Z,17.40
2023-03-26T06:22:44.877Z,17.90
2023-03-26T06:25:25.130Z,17.10
2023-03-26T06:27:59.341Z,14.18
2023-03-26T06:30:29.378Z,15.73
2023-03-26T06:33:05.931Z,14.85
2023-03-26T06:35:39.372Z,15.23
2023-03-26T06:38:07.608Z,16.50
2023-03-26T06:40:35.399Z,11.70
2023-03-26T06:43:36.093Z,12.80
2023-03-26T06:46:06.429Z,13.25
2023-03-26T06:48:40.183Z,12.93
2023-03-26T06:51:22.470Z,12.35
2023-03-26T06:54:08.582Z,10.25
2023-03-26T06:56:47.891Z,17.10
2023-03-26T06:59:31.463Z,14.73
2023-03-26T07:02:31.073Z,10.85
2023-03-26T07:05:16.940Z,13.07
2023-03-26T07:08:19.210Z,11.52
2023-03-26T07:11:25.390Z,11.95
2023-03-26T07:14:12.621Z,10.48
2023-03-26T07:16:58.762Z,7.75
2023-03-26T07:19:44.766Z,15.68
2023-03-26T07:22:15.985Z,10.63
2023-03-26T07:25:01.566Z,11.60
2023-03-26T07:28:32.018Z,10.18
2023-03-26T07:31:23.353Z,12.48
2023-03-26T07:34:03.996Z,11.10
2023-03-26T07:37:03.643Z,7.70
2023-03-26T07:40:10.340Z,13.95
2023-03-26T07:43:05.973Z,13.07
2023-03-26T07:45:45.640Z,9.82
2023-03-26T07:48:40.757Z,12.40
2023-03-26T07:51:30.737Z,14.93
2023-03-26T07:54:11.160Z,12.40
2023-03-26T07:56:58.657Z,10.82
2023-03-26T07:59:55.762Z,12.63
2023-03-26T08:02:45.334Z,11.10
2023-03-26T08:05:51.875Z,12.32
2023-03-26T08:08:54.253Z,15.13
2023-03-26T08:11:54.808Z,12.75
2023-03-26T08:14:24.733Z,18.15
2023-03-26T08:16:51.979Z,11.57
2023-03-26T08:19:25.348Z,13.18
2023-03-26T08:21:54.520Z,15.90
2023-03-26T08:24:32.384Z,15.48
2023-03-26T08:27:08.693Z,11.75
2023-03-26T08:29:54.287Z,17.00
2023-03-26T08:32:21.887Z,13.40
2023-03-26T08:34:49.624Z,9.88
2023-03-26T08:37:16.781Z,10.57
2023-03-26T08:39:43.928Z,16.08
2023-03-26T08:42:19.862Z,10.55
2023-03-26T08:44:48.764Z,11.57
2023-03-26T08:47:18.967Z,13.05
2023-03-26T08:50:19.702Z,9.52
2023-03-26T08:53:05.502Z,9.82
2023-03-26T08:55:55.710Z,8.85
2023-03-26T08:58:42.517Z,17.42
2023-03-26T09:01:12.538Z,12.13
2023-03-26T09:03:52.661Z,10.38
2023-03-26T09:06:32.462Z,10.50
2023-03-26T09:09:04.475Z,10.45
2023-03-26T09:11:40.853Z,8.90
2023-03-26T09:14:14.130Z,13.80
2023-03-26T09:16:59.907Z,12.88
2023-03-26T09:19:36.535Z,9.90
2023-03-26T09:22:25.381Z,11.82
2023-03-26T09:24:55.722Z,17.92
2023-03-26T09:27:26.005Z,12.43
2023-03-26T09:29:56.683Z,6.38
2023-03-26T09:32:31.538Z,8.18
2023-03-26T09:35:10.724Z,8.40
2023-03-26T09:37:57.465Z,11.13
2023-03-26T09:40:27.023Z,10.52
2023-03-26T09:43:06.000Z,10.30
2023-03-26T09:46:03.367Z,9.10
2023-03-26T09:48:59.462Z,10.13
2023-03-26T09:51:45.405Z,9.48
2023-03-26T09:54:31.489Z,8.30
2023-03-26T09:57:08.394Z,12.38
2023-03-26T09:59:38.837Z,8.27
2023-03-26T10:02:12.068Z,12.10
2023-03-26T10:05:02.040Z,8.38
2023-03-26T10:07:32.281Z,8.32
2023-03-26T10:10:09.679Z,8.35
2023-03-26T10:13:16.826Z,9.93
2023-03-26T10:15:59.345Z,5.97
2023-03-26T10:18:44.574Z,10.65
2023-03-26T10:21:30.670Z,8.75
2023-03-26T10:24:33.428Z,8.40
2023-03-26T10:27:10.835Z,8.40
2023-03-26T10:29:44.600Z,11.00
2023-03-26T10:32:17.568Z,6.65
2023-03-26T10:34:47.406Z,8.20
2023-03-26T10:37:50.532Z,10.85
2023-03-26T10:40:36.626Z,12.05
2023-03-26T10:43:12.729Z,9.18
2023-03-26T10:45:45.415Z,9.77
2023-03-26T10:48:56.484Z,9.80
2023-03-26T10:51:26.527Z,9.77
2023-03-26T10:54:16.568Z,11.18
2023-03-26T10:56:49.398Z,10.55
2023-03-26T10:59:17.749Z,10.27
2023-03-26T11:02:16.982Z,9.80
2023-03-26T11:04:44.037Z,13.15
2023-03-26T11:07:16.905Z,10.63
2023-03-26T11:09:47.063Z,8.88
2023-03-26T11:12:25.701Z,9.60
2023-03-26T11:15:04.668Z,10.50
2023-03-26T11:17:41.694Z,9.20
2023-03-26T11:20:18.324Z,12.07
2023-03-26T11:23:01.117Z,9.23
2023-03-26T11:25:28.156Z,11.02
2023-03-26T11:28:04.992Z,10.27
2023-03-26T11:30:44.563Z,10.52
2023-03-26T11:33:16.841Z,8.25
2023-03-26T11:35:47.842Z,7.47
2023-03-26T11:38:21.017Z,8.10
2023-03-26T11:40:50.943Z,7.32
2023-03-26T11:43:35.659Z,12.30
2023-03-26T11:46:05.045Z,4.90
2023-03-26T11:48:41.463Z,11.80
2023-03-26T11:51:10.691Z,8.43
2023-03-26T11:53:46.456Z,8.60
2023-03-26T11:56:23.850Z,7.65
2023-03-26T11:58:54.363Z,8.45
2023-03-26T12:01:30.484Z,9.68
2023-03-26T12:04:14.701Z,8.93
2023-03-26T12:07:05.106Z,10.88
2023-03-26T12:09:32.232Z,8.15
2023-03-26T12:12:01.198Z,8.52
2023-03-26T12:14:30.148Z,9.35
2023-03-26T12:16:58.481Z,8.32
2023-03-26T12:19:26.965Z,5.32
2023-03-26T12:21:54.049Z,10.77
2023-03-26T12:24:29.539Z,7.68
2023-03-26T12:27:02.194Z,11.35
2023-03-26T12:29:34.399Z,8.82
2023-03-26T12:32:07.227Z,5.70
2023-03-26T12:34:39.303Z,9.63
2023-03-26T12:37:08.046Z,8.70
2023-03-26T12:40:06.646Z,11.95
2023-03-26T12:44:46.409Z,10.13
2023-03-26T12:45:14.482Z,10.02
2023-03-26T12:47:58.375Z,10.40
2023-03-26T12:50:46.276Z,8.65
2023-03-26T12:53:52.002Z,9.00
2023-03-26T12:56:38.738Z,9.25
2023-03-26T12:59:50.349Z,12.07
2023-03-26T13:02:19.958Z,8.77
2023-03-26T13:05:06.135Z,4.68
2023-03-26T13:07:52.256Z,7.25
2023-03-26T13:10:44.153Z,12.35
2023-03-26T13:13:23.351Z,8.23
2023-03-26T13:15:54.614Z,9.23
2023-03-26T13:18:24.154Z,9.80
2023-03-26T13:21:00.498Z,9.30
2023-03-26T13:23:46.641Z,6.47
2023-03-26T13:26:18.929Z,9.38
2023-03-26T13:28:45.985Z,7.25
2023-03-26T13:31:19.654Z,6.45
2023-03-26T13:33:51.006Z,4.97
2023-03-26T13:36:24.479Z,9.52
2023-03-26T13:39:09.406Z,10.40
2023-03-26T13:41:45.720Z,8.23
2023-03-26T13:44:15.787Z,10.10
2023-03-26T13:46:52.589Z,6.07
2023-03-26T13:49:25.797Z,9.10
2023-03-26T13:51:57.424Z,7.70
2023-03-26T13:54:30.562Z,8.93
2023-03-26T13:57:05.811Z,13.68
2023-03-26T13:59:36.971Z,16.33
2023-03-26T14:02:11.073Z,12.93
2023-03-26T14:04:41.132Z,9.20
2023-03-26T14:07:19.064Z,6.75
2023-03-26T14:09:46.147Z,12.75
2023-03-26T14:12:25.042Z,10.13
2023-03-26T14:14:55.948Z,11.95
2023-03-26T14:17:34.308Z,7.50
2023-03-26T14:20:31.909Z,8.60
2023-03-26T14:23:15.738Z,7.70
2023-03-26T14:25:48.624Z,9.38
2023-03-26T14:28:29.550Z,8.30
2023-03-26T14:31:10.229Z,8.35
2023-03-26T14:33:43.567Z,11.43
2023-03-26T14:36:19.888Z,12.52
2023-03-26T14:38:46.948Z,8.63
2023-03-26T14:41:14.150Z,10.05
2023-03-26T14:43:41.872Z,9.73
2023-03-26T14:46:28.097Z,6.10
2023-03-26T14:49:02.687Z,9.20
2023-03-26T14:51:36.215Z,11.32
2023-03-26T14:54:06.920Z,7.93
2023-03-26T14:56:53.209Z,6.80
2023-03-26T14:59:23.081Z,12.40
2023-03-26T15:02:06.127Z,9.68
2023-03-26T15:04:43.726Z,9.15
2023-03-26T15:07:23.284Z,8.55
2023-03-26T15:10:02.508Z,10.57
2023-03-26T15:12:42.319Z,11.15
2023-03-26T15:15:43.230Z,13.02
2023-03-26T15:18:22.628Z,15.82
2023-03-26T15:21:11.129Z,7.32
2023-03-26T15:23:46.256Z,14.02
2023-03-26T15:26:37.112Z,12.63
2023-03-26T15:29:12.964Z,10.05
2023-03-26T15:31:56.592Z,8.90
2023-03-26T15:34:42.779Z,8.43
2023-03-26T15:37:22.566Z,9.85
2023-03-26T15:40:08.326Z,6.78
2023-03-26T15:42:41.808Z,6.72
2023-03-26T15:45:32.209Z,9.27
2023-03-26T15:48:12.015Z,8.27
2023-03-26T15:51:03.740Z,6.50
2023-03-26T15:53:43.743Z,7.78
2023-03-26T15:56:14.174Z,5.43
2023-03-26T15:58:57.989Z,7.65
2023-03-26T16:01:35.090Z,6.63
2023-03-26T16:06:48.155Z,9.68
2023-03-26T16:09:32.534Z,6.47
2023-03-26T16:12:03.925Z,7.50
2023-03-26T16:14:37.054Z,7.30
2023-03-26T16:17:12.394Z,10.00
2023-03-26T16:19:49.839Z,7.05
2023-03-26T16:22:42.800Z,10.73
2023-03-26T16:25:30.954Z,10.82
2023-03-26T16:28:21.238Z,8.90
2023-03-26T16:31:23.528Z,7.95
2023-03-26T16:33:59.952Z,10.48
2023-03-26T16:36:30.930Z,8.98
2023-03-26T16:41:29.476Z,9.85
2023-03-26T16:44:04.566Z,5.88
2023-03-26T16:46:32.031Z,6.95
2023-03-26T16:49:05.280Z,6.18
2023-03-26T16:51:51.297Z,6.00
2023-03-26T16:54:52.627Z,6.00
2023-03-26T16:57:23.376Z,6.65
2023-03-26T17:00:07.873Z,6.07
2023-03-26T17:02:43.543Z,10.68
2023-03-26T17:05:29.753Z,7.75
2023-03-26T17:08:06.290Z,5.47
2023-03-26T17:10:33.466Z,9.45
2023-03-26T17:13:00.634Z,7.97
2023-03-26T17:16:03.617Z,10.15
2023-03-26T17:18:39.693Z,8.02
2023-03-26T17:21:06.798Z,8.40
2023-03-26T17:23:39.059Z,9.30
2023-03-26T17:26:17.065Z,7.80
2023-03-26T17:29:02.503Z,8.23
2023-03-26T17:31:48.207Z,9.88
2023-03-26T17:34:34.328Z,10.80
2023-03-26T17:37:04.103Z,11.65
2023-03-26T17:39:40.366Z,12.23
2023-03-26T17:42:16.563Z,14.48
2023-03-26T17:44:48.208Z,8.32
2023-03-26T17:47:22.684Z,8.93
2023-03-26T17:49:52.424Z,12.15
2023-03-26T17:52:48.596Z,5.85
2023-03-26T17:55:17.835Z,8.25
2023-03-26T17:57:46.315Z,7.25
2023-03-26T18:00:18.475Z,13.73
2023-03-26T18:02:48.290Z,8.55
2023-03-26T18:05:16.932Z,5.78
2023-03-26T18:07:47.277Z,9.85
2023-03-26T18:10:17.621Z,13.18
2023-03-26T18:13:10.599Z,5.60
2023-03-26T18:15:41.566Z,10.02
2023-03-26T18:18:19.802Z,11.00
2023-03-26T18:20:48.989Z,9.18
2023-03-26T18:23:23.845Z,12.63
2023-03-26T18:25:56.508Z,7.60
2023-03-26T18:28:30.855Z,9.50
2023-03-26T18:31:08.259Z,8.60
2023-03-26T18:33:43.032Z,10.38
2023-03-26T18:36:11.669Z,6.15
2023-03-26T18:38:41.132Z,9.93
2023-03-26T18:41:15.721Z,13.88
2023-03-26T18:43:43.659Z,5.63
2023-03-26T18:46:13.813Z,6.35
2023-03-26T18:48:41.264Z,6.55
2023-03-26T18:51:08.571Z,7.47
2023-03-26T18:53:46.296Z,5.25
2023-03-26T18:56:36.017Z,6.47
2023-03-26T19:01:31.542Z,10.38
2023-03-26T19:04:04.039Z,6.35
2023-03-26T19:06:35.718Z,8.48
2023-03-26T19:09:13.465Z,11.98
2023-03-26T19:11:45.311Z,8.43
2023-03-26T19:14:17.459Z,7.18
2023-03-26T19:16:50.122Z,6.45
2023-03-26T19:19:19.086Z,10.10
2023-03-26T19:21:46.652Z,7.70
2023-03-26T19:24:14.791Z,8.02
2023-03-26T19:26:41.965Z,8.15
2023-03-26T19:29:12.840Z,9.02
2023-03-26T19:31:40.429Z,7.30
2023-03-26T19:34:13.702Z,6.93
2023-03-26T19:37:10.044Z,7.65
2023-03-26T19:39:41.816Z,7.10
2023-03-26T19:42:14.159Z,11.30
2023-03-26T19:44:42.304Z,10.82
2023-03-26T19:47:16.918Z,7.38
2023-03-26T19:49:44.041Z,8.00
2023-03-26T19:52:33.440Z,7.43
2023-03-26T19:55:01.208Z,10.18
2023-03-26T19:57:32.257Z,7.30
2023-03-26T19:59:59.826Z,7.60
2023-03-26T20:02:27.216Z,7.82
2023-03-26T20:04:54.730Z,8.57
2023-03-26T20:07:34.922Z,11.25
2023-03-26T20:10:05.267Z,8.85
2023-03-26T20:12:32.450Z,10.00
2023-03-26T20:14:59.530Z,11.55
2023-03-26T20:17:26.986Z,13.73
2023-03-26T20:19:54.193Z,7.63
2023-03-26T20:22:21.293Z,8.65
2023-03-26T20:24:48.849Z,8.80
2023-03-26T20:27:16.133Z,11.57
2023-03-26T20:29:43.257Z,8.10
2023-03-26T20:32:23.675Z,5.63
2023-03-26T20:34:52.254Z,11.75
2023-03-26T20:37:19.462Z,7.82
2023-03-26T20:39:46.841Z,7.28
2023-03-26T20:42:15.427Z,5.00
2023-03-26T20:44:43.550Z,8.73
2023-03-26T20:47:11.375Z,9.93
2023-03-26T20:49:38.901Z,10.07
2023-03-26T20:52:06.186Z,11.45
2023-03-26T20:54:33.495Z,7.28
2023-03-26T20:57:00.593Z,6.20
2023-03-26T20:59:28.331Z,7.70
2023-03-26T21:01:57.780Z,8.88
2023-03-26T21:04:26.178Z,7.65
2023-03-26T21:06:57.629Z,8.38
2023-03-26T21:09:35.077Z,6.97
2023-03-26T21:12:05.126Z,7.35
2023-03-26T21:14:41.427Z,10.30
2023-03-26T21:17:16.515Z,8.60
2023-03-26T21:19:43.930Z,6.65
2023-03-26T21:22:16.864Z,7.93
2023-03-26T21:24:50.537Z,7.25
2023-03-26T21:27:36.100Z,7.03
2023-03-26T21:30:03.430Z,7.97
2023-03-26T21:32:31.593Z,8.07
2023-03-26T21:34:59.669Z,7.50
2023-03-26T21:37:27.469Z,3.15
2023-03-26T21:39:55.046Z,7.68
2023-03-26T21:42:22.403Z,6.35
2023-03-26T21:44:49.666Z,7.53
2023-03-26T21:47:16.934Z,8.73
2023-03-26T21:49:44.232Z,8.25
2023-03-26T21:52:15.549Z,8.00
2023-03-26T21:54:43.124Z,8.63
2023-03-26T21:57:10.532Z,6.20
2023-03-26T21:59:42.724Z,6.80
2023-03-26T22:02:28.619Z,10.85
2023-03-26T22:04:59.654Z,5.57
2023-03-26T22:07:49.514Z,9.02
2023-03-26T22:12:43.498Z,8.13
2023-03-26T22:15:13.853Z,8.80
2023-03-26T22:17:42.127Z,9.35
2023-03-26T22:20:14.212Z,9.85
2023-03-26T22:22:48.511Z,5.13
2023-03-26T22:25:16.188Z,5.75
2023-03-26T22:27:44.003Z,4.88
2023-03-26T22:30:12.450Z,6.88
2023-03-26T22:32:39.871Z,5.18
2023-03-26T22:35:07.296Z,9.68
2023-03-26T22:37:35.560Z,8.65
2023-03-26T22:40:05.847Z,9.75
2023-03-26T22:42:33.018Z,10.45
2023-03-26T22:45:00.116Z,10.75
2023-03-26T22:47:27.281Z,9.38
2023-03-26T22:49:54.482Z,6.78
2023-03-26T22:52:21.534Z,7.72
2023-03-26T22:54:48.661Z,2.53
2023-03-26T22:57:16.406Z,8.65
2023-03-26T22:59:43.674Z,6.63
2023-03-26T23:02:12.324Z,5.85
2023-03-26T23:04:39.508Z,6.95
2023-03-26T23:07:06.706Z,5.55
2023-03-26T23:09:33.781Z,7.05
2023-03-26T23:12:01.126Z,7.50
2023-03-26T23:14:29.085Z,8.52
2023-03-26T23:16:57.174Z,9.23
2023-03-26T23:19:24.786Z,9.20
2023-03-26T23:21:52.350Z,10.88
2023-03-26T23:24:19.731Z,6.63
2023-03-26T23:26:51.059Z,5.38
2023-03-26T23:29:18.852Z,6.40
2023-03-26T23:31:46.006Z,6.90
2023-03-26T23:34:13.446Z,9.35
2023-03-26T23:36:41.740Z,9.93
2023-03-26T23:39:09.220Z,7.45
2023-03-26T23:41:36.705Z,8.63
2023-03-26T23:44:04.349Z,7.82
2023-03-26T23:46:34.583Z,7.15
2023-03-26T23:49:04.993Z,5.15
2023-03-26T23:51:32.536Z,6.55
2023-03-26T23:54:00.190Z,6.30
2023-03-26T23:56:30.384Z,6.32
2023-03-26T23:58:58.108Z,3.78
